sensor_id;sensor_type;location;lat;lon;timestamp;temperature;humidity
15916;DHT22;8057;47.830;-3.870;2023-07-31T00:01:25;17.90;99.90
15916;DHT22;8057;47.830;-3.870;2023-07-31T00:05:35;17.90;99.90
15916;DHT22;8057;47.830;-3.870;2023-07-31T00:09:45;17.90;99.90
15916;DHT22;8057;47.830;-3.870;2023-07-31T00:13:55;17.90;99.90
15916;DHT22;8057;47.830;-3.870;2023-07-31T00:18:06;17.90;99.90
15916;DHT22;8057;47.830;-3.870;2023-07-31T00:22:15;17.90;99.90
15916;DHT22;8057;47.830;-3.870;2023-07-31T00:26:25;17.90;99.90
15916;DHT22;8057;47.830;-3.870;2023-07-31T00:30:35;18.00;99.90
15916;DHT22;8057;47.830;-3.870;2023-07-31T00:34:46;18.00;99.90
15916;DHT22;8057;47.830;-3.870;2023-07-31T00:38:56;18.00;99.90
15916;DHT22;8057;47.830;-3.870;2023-07-31T00:43:05;17.90;99.90
15916;DHT22;8057;47.830;-3.870;2023-07-31T00:47:15;18.00;99.90
15916;DHT22;8057;47.830;-3.870;2023-07-31T00:51:26;18.00;99.90
15916;DHT22;8057;47.830;-3.870;2023-07-31T00:55:36;18.00;99.90
15916;DHT22;8057;47.830;-3.870;2023-07-31T00:59:47;18.00;99.90
15916;DHT22;8057;47.830;-3.870;2023-07-31T01:03:58;18.00;99.90
15916;DHT22;8057;47.830;-3.870;2023-07-31T01:08:15;18.00;99.90
15916;DHT22;8057;47.830;-3.870;2023-07-31T01:12:28;18.00;99.90
15916;DHT22;8057;47.830;-3.870;2023-07-31T01:16:38;18.00;99.90
15916;DHT22;8057;47.830;-3.870;2023-07-31T01:20:56;18.00;99.90
15916;DHT22;8057;47.830;-3.870;2023-07-31T01:25:20;18.00;99.90
15916;DHT22;8057;47.830;-3.870;2023-07-31T01:29:38;18.00;99.90
15916;DHT22;8057;47.830;-3.870;2023-07-31T01:33:50;18.10;99.90
15916;DHT22;8057;47.830;-3.870;2023-07-31T01:38:02;18.10;99.90
15916;DHT22;8057;47.830;-3.870;2023-07-31T01:42:12;18.10;99.90
15916;DHT22;8057;47.830;-3.870;2023-07-31T01:46:23;18.10;99.90
15916;DHT22;8057;47.830;-3.870;2023-07-31T01:50:33;18.00;99.90
15916;DHT22;8057;47.830;-3.870;2023-07-31T01:54:42;18.00;99.90
15916;DHT22;8057;47.830;-3.870;2023-07-31T01:58:53;18.00;99.90
15916;DHT22;8057;47.830;-3.870;2023-07-31T02:03:04;18.00;99.90
15916;DHT22;8057;47.830;-3.870;2023-07-31T02:07:14;18.00;99.90
15916;DHT22;8057;47.830;-3.870;2023-07-31T02:11:25;18.00;99.90
15916;DHT22;8057;47.830;-3.870;2023-07-31T02:15:36;18.00;99.90
15916;DHT22;8057;47.830;-3.870;2023-07-31T02:19:47;18.00;99.90
15916;DHT22;8057;47.830;-3.870;2023-07-31T02:23:57;18.10;99.90
15916;DHT22;8057;47.830;-3.870;2023-07-31T02:28:08;18.10;99.90
15916;DHT22;8057;47.830;-3.870;2023-07-31T02:32:17;18.00;99.90
15916;DHT22;8057;47.830;-3.870;2023-07-31T02:36:31;18.10;99.90
15916;DHT22;8057;47.830;-3.870;2023-07-31T02:40:41;18.10;99.90
15916;DHT22;8057;47.830;-3.870;2023-07-31T02:44:51;18.10;99.90
15916;DHT22;8057;47.830;-3.870;2023-07-31T02:49:03;18.10;99.90
15916;DHT22;8057;47.830;-3.870;2023-07-31T02:53:14;18.10;99.90
15916;DHT22;8057;47.830;-3.870;2023-07-31T02:57:24;18.10;99.90
15916;DHT22;8057;47.830;-3.870;2023-07-31T03:01:34;18.10;99.90
15916;DHT22;8057;47.830;-3.870;2023-07-31T03:05:45;18.10;99.90
15916;DHT22;8057;47.830;-3.870;2023-07-31T03:09:58;18.10;99.90
15916;DHT22;8057;47.830;-3.870;2023-07-31T03:14:10;18.10;99.90
15916;DHT22;8057;47.830;-3.870;2023-07-31T03:18:20;18.10;99.90
15916;DHT22;8057;47.830;-3.870;2023-07-31T03:22:29;18.10;99.90
15916;DHT22;8057;47.830;-3.870;2023-07-31T03:26:41;18.10;99.90
15916;DHT22;8057;47.830;-3.870;2023-07-31T03:30:57;18.10;99.90
15916;DHT22;8057;47.830;-3.870;2023-07-31T03:35:08;18.10;99.90
15916;DHT22;8057;47.830;-3.870;2023-07-31T03:39:18;18.10;99.90
15916;DHT22;8057;47.830;-3.870;2023-07-31T03:43:49;18.10;99.90
15916;DHT22;8057;47.830;-3.870;2023-07-31T03:48:14;18.10;99.90
15916;DHT22;8057;47.830;-3.870;2023-07-31T03:52:24;18.10;99.90
15916;DHT22;8057;47.830;-3.870;2023-07-31T03:56:48;18.10;99.90
15916;DHT22;8057;47.830;-3.870;2023-07-31T04:01:01;18.10;99.90
15916;DHT22;8057;47.830;-3.870;2023-07-31T04:05:14;18.10;99.90
15916;DHT22;8057;47.830;-3.870;2023-07-31T04:09:43;18.10;99.90
15916;DHT22;8057;47.830;-3.870;2023-07-31T04:13:53;18.10;99.90
15916;DHT22;8057;47.830;-3.870;2023-07-31T04:18:05;18.10;99.90
15916;DHT22;8057;47.830;-3.870;2023-07-31T04:22:16;18.10;99.90
15916;DHT22;8057;47.830;-3.870;2023-07-31T04:26:27;18.10;99.90
15916;DHT22;8057;47.830;-3.870;2023-07-31T04:30:37;18.10;99.90
15916;DHT22;8057;47.830;-3.870;2023-07-31T04:34:48;18.10;99.90
15916;DHT22;8057;47.830;-3.870;2023-07-31T04:38:58;18.10;99.90
15916;DHT22;8057;47.830;-3.870;2023-07-31T04:43:13;18.10;99.90
15916;DHT22;8057;47.830;-3.870;2023-07-31T04:47:24;18.10;99.90
15916;DHT22;8057;47.830;-3.870;2023-07-31T04:51:38;18.10;99.90
15916;DHT22;8057;47.830;-3.870;2023-07-31T04:55:47;18.00;99.90
15916;DHT22;8057;47.830;-3.870;2023-07-31T04:59:58;18.10;99.90
15916;DHT22;8057;47.830;-3.870;2023-07-31T05:04:08;18.10;99.90
15916;DHT22;8057;47.830;-3.870;2023-07-31T05:08:21;18.00;99.90
15916;DHT22;8057;47.830;-3.870;2023-07-31T05:12:31;18.00;99.90
15916;DHT22;8057;47.830;-3.870;2023-07-31T05:16:47;18.00;99.90
15916;DHT22;8057;47.830;-3.870;2023-07-31T05:21:04;18.00;99.90
15916;DHT22;8057;47.830;-3.870;2023-07-31T05:25:15;18.00;99.90
15916;DHT22;8057;47.830;-3.870;2023-07-31T05:29:26;18.00;99.90
15916;DHT22;8057;47.830;-3.870;2023-07-31T05:33:35;18.00;99.90
15916;DHT22;8057;47.830;-3.870;2023-07-31T05:37:44;18.00;99.90
15916;DHT22;8057;47.830;-3.870;2023-07-31T05:41:56;18.00;99.90
15916;DHT22;8057;47.830;-3.870;2023-07-31T05:46:06;18.00;99.90
15916;DHT22;8057;47.830;-3.870;2023-07-31T05:50:17;18.00;99.90
15916;DHT22;8057;47.830;-3.870;2023-07-31T05:54:26;18.00;99.90
15916;DHT22;8057;47.830;-3.870;2023-07-31T05:58:38;18.00;99.90
15916;DHT22;8057;47.830;-3.870;2023-07-31T06:02:47;18.00;99.90
15916;DHT22;8057;47.830;-3.870;2023-07-31T06:06:59;18.00;99.90
15916;DHT22;8057;47.830;-3.870;2023-07-31T06:11:12;18.00;99.90
15916;DHT22;8057;47.830;-3.870;2023-07-31T06:15:23;18.00;99.90
15916;DHT22;8057;47.830;-3.870;2023-07-31T06:19:34;18.10;99.90
15916;DHT22;8057;47.830;-3.870;2023-07-31T06:23:44;18.00;99.90
15916;DHT22;8057;47.830;-3.870;2023-07-31T06:27:53;18.00;99.90
15916;DHT22;8057;47.830;-3.870;2023-07-31T06:32:04;18.10;99.90
15916;DHT22;8057;47.830;-3.870;2023-07-31T06:36:14;18.10;99.90
15916;DHT22;8057;47.830;-3.870;2023-07-31T06:44:51;18.10;99.90
15916;DHT22;8057;47.830;-3.870;2023-07-31T06:53:33;18.20;99.90
15916;DHT22;8057;47.830;-3.870;2023-07-31T06:57:54;18.20;99.90
15916;DHT22;8057;47.830;-3.870;2023-07-31T07:02:08;18.30;99.90
15916;DHT22;8057;47.830;-3.870;2023-07-31T07:06:32;18.30;99.90
15916;DHT22;8057;47.830;-3.870;2023-07-31T07:10:46;18.30;99.90
15916;DHT22;8057;47.830;-3.870;2023-07-31T07:14:56;18.40;99.90
15916;DHT22;8057;47.830;-3.870;2023-07-31T07:19:08;18.40;99.90
15916;DHT22;8057;47.830;-3.870;2023-07-31T07:23:34;18.50;99.90
15916;DHT22;8057;47.830;-3.870;2023-07-31T07:27:54;18.60;99.90
15916;DHT22;8057;47.830;-3.870;2023-07-31T07:32:04;18.50;99.90
15916;DHT22;8057;47.830;-3.870;2023-07-31T07:36:16;18.50;99.90
15916;DHT22;8057;47.830;-3.870;2023-07-31T07:40:27;18.50;99.90
15916;DHT22;8057;47.830;-3.870;2023-07-31T07:44:58;18.60;99.90
15916;DHT22;8057;47.830;-3.870;2023-07-31T07:49:27;18.60;99.90
15916;DHT22;8057;47.830;-3.870;2023-07-31T07:53:36;18.60;99.90
15916;DHT22;8057;47.830;-3.870;2023-07-31T07:57:46;18.60;99.90
15916;DHT22;8057;47.830;-3.870;2023-07-31T08:01:59;18.60;99.90
15916;DHT22;8057;47.830;-3.870;2023-07-31T08:06:09;18.70;99.90
15916;DHT22;8057;47.830;-3.870;2023-07-31T08:10:20;18.70;99.90
15916;DHT22;8057;47.830;-3.870;2023-07-31T08:14:41;18.70;99.90
15916;DHT22;8057;47.830;-3.870;2023-07-31T08:18:54;18.60;99.90
15916;DHT22;8057;47.830;-3.870;2023-07-31T08:23:04;18.60;99.90
15916;DHT22;8057;47.830;-3.870;2023-07-31T08:27:13;18.60;99.90
15916;DHT22;8057;47.830;-3.870;2023-07-31T08:31:35;18.60;99.90
15916;DHT22;8057;47.830;-3.870;2023-07-31T08:35:54;18.70;99.90
15916;DHT22;8057;47.830;-3.870;2023-07-31T08:40:06;18.70;99.90
15916;DHT22;8057;47.830;-3.870;2023-07-31T08:44:19;18.60;99.90
15916;DHT22;8057;47.830;-3.870;2023-07-31T09:02:22;18.70;99.90
15916;DHT22;8057;47.830;-3.870;2023-07-31T09:06:40;18.70;99.90
15916;DHT22;8057;47.830;-3.870;2023-07-31T09:10:51;18.70;99.90
15916;DHT22;8057;47.830;-3.870;2023-07-31T09:15:01;18.70;99.90
15916;DHT22;8057;47.830;-3.870;2023-07-31T09:23:57;18.80;99.90
15916;DHT22;8057;47.830;-3.870;2023-07-31T09:28:15;18.70;99.90
15916;DHT22;8057;47.830;-3.870;2023-07-31T09:33:17;18.60;99.90
15916;DHT22;8057;47.830;-3.870;2023-07-31T09:37:34;18.60;99.90
15916;DHT22;8057;47.830;-3.870;2023-07-31T09:42:02;18.70;99.90
15916;DHT22;8057;47.830;-3.870;2023-07-31T09:46:27;18.70;99.90
15916;DHT22;8057;47.830;-3.870;2023-07-31T10:01:09;18.70;99.90
15916;DHT22;8057;47.830;-3.870;2023-07-31T10:05:35;18.70;99.90
15916;DHT22;8057;47.830;-3.870;2023-07-31T10:09:46;18.70;99.90
15916;DHT22;8057;47.830;-3.870;2023-07-31T10:14:12;18.70;99.90
15916;DHT22;8057;47.830;-3.870;2023-07-31T10:18:35;18.70;99.90
15916;DHT22;8057;47.830;-3.870;2023-07-31T10:23:44;18.70;99.90
15916;DHT22;8057;47.830;-3.870;2023-07-31T10:27:57;18.60;99.90
15916;DHT22;8057;47.830;-3.870;2023-07-31T10:32:42;18.70;99.90
15916;DHT22;8057;47.830;-3.870;2023-07-31T10:37:46;18.70;99.90
15916;DHT22;8057;47.830;-3.870;2023-07-31T10:42:11;18.70;99.90
15916;DHT22;8057;47.830;-3.870;2023-07-31T10:46:22;18.70;99.90
15916;DHT22;8057;47.830;-3.870;2023-07-31T10:50:48;18.70;99.90
15916;DHT22;8057;47.830;-3.870;2023-07-31T10:55:30;18.70;99.90
15916;DHT22;8057;47.830;-3.870;2023-07-31T10:59:40;18.70;99.90
15916;DHT22;8057;47.830;-3.870;2023-07-31T11:03:50;18.70;99.90
15916;DHT22;8057;47.830;-3.870;2023-07-31T11:08:00;18.70;99.90
15916;DHT22;8057;47.830;-3.870;2023-07-31T11:12:11;18.70;99.90
15916;DHT22;8057;47.830;-3.870;2023-07-31T11:16:21;18.80;99.90
15916;DHT22;8057;47.830;-3.870;2023-07-31T11:20:31;18.80;99.90
15916;DHT22;8057;47.830;-3.870;2023-07-31T11:24:40;18.80;99.90
15916;DHT22;8057;47.830;-3.870;2023-07-31T11:28:52;18.80;99.90
15916;DHT22;8057;47.830;-3.870;2023-07-31T11:33:02;18.80;99.90
15916;DHT22;8057;47.830;-3.870;2023-07-31T11:37:12;18.80;99.90
15916;DHT22;8057;47.830;-3.870;2023-07-31T11:41:24;18.70;99.90
15916;DHT22;8057;47.830;-3.870;2023-07-31T11:45:35;18.70;99.90
15916;DHT22;8057;47.830;-3.870;2023-07-31T11:49:44;18.70;99.90
15916;DHT22;8057;47.830;-3.870;2023-07-31T11:53:55;18.60;99.90
15916;DHT22;8057;47.830;-3.870;2023-07-31T11:58:05;18.70;99.90
15916;DHT22;8057;47.830;-3.870;2023-07-31T12:02:16;18.70;99.90
15916;DHT22;8057;47.830;-3.870;2023-07-31T12:06:33;18.60;99.90
15916;DHT22;8057;47.830;-3.870;2023-07-31T12:10:42;18.60;99.90
15916;DHT22;8057;47.830;-3.870;2023-07-31T12:14:52;18.60;99.90
15916;DHT22;8057;47.830;-3.870;2023-07-31T12:19:03;18.60;99.90
15916;DHT22;8057;47.830;-3.870;2023-07-31T12:23:17;18.50;99.90
15916;DHT22;8057;47.830;-3.870;2023-07-31T12:27:33;18.50;99.90
15916;DHT22;8057;47.830;-3.870;2023-07-31T12:31:43;18.50;99.90
15916;DHT22;8057;47.830;-3.870;2023-07-31T12:35:53;18.50;99.90
15916;DHT22;8057;47.830;-3.870;2023-07-31T12:40:03;18.60;99.90
15916;DHT22;8057;47.830;-3.870;2023-07-31T12:44:15;18.70;99.90
15916;DHT22;8057;47.830;-3.870;2023-07-31T12:48:24;18.60;99.90
15916;DHT22;8057;47.830;-3.870;2023-07-31T12:52:35;18.70;99.90
15916;DHT22;8057;47.830;-3.870;2023-07-31T12:56:44;18.70;99.90
15916;DHT22;8057;47.830;-3.870;2023-07-31T13:00:53;18.80;99.90
15916;DHT22;8057;47.830;-3.870;2023-07-31T13:05:02;18.80;99.90
15916;DHT22;8057;47.830;-3.870;2023-07-31T13:09:13;18.80;99.90
15916;DHT22;8057;47.830;-3.870;2023-07-31T13:13:24;18.90;99.90
15916;DHT22;8057;47.830;-3.870;2023-07-31T13:17:36;18.90;99.90
15916;DHT22;8057;47.830;-3.870;2023-07-31T13:21:45;18.90;99.90
15916;DHT22;8057;47.830;-3.870;2023-07-31T13:25:56;18.90;99.90
15916;DHT22;8057;47.830;-3.870;2023-07-31T13:30:06;18.90;99.90
15916;DHT22;8057;47.830;-3.870;2023-07-31T13:34:16;19.00;99.90
15916;DHT22;8057;47.830;-3.870;2023-07-31T13:38:25;19.10;99.90
15916;DHT22;8057;47.830;-3.870;2023-07-31T13:42:36;19.20;99.90
15916;DHT22;8057;47.830;-3.870;2023-07-31T13:46:45;19.30;99.90
15916;DHT22;8057;47.830;-3.870;2023-07-31T13:50:54;19.30;99.90
15916;DHT22;8057;47.830;-3.870;2023-07-31T13:55:03;19.40;99.90
15916;DHT22;8057;47.830;-3.870;2023-07-31T13:59:14;19.50;99.90
15916;DHT22;8057;47.830;-3.870;2023-07-31T14:03:24;19.50;99.90
15916;DHT22;8057;47.830;-3.870;2023-07-31T14:07:33;19.40;99.90
15916;DHT22;8057;47.830;-3.870;2023-07-31T14:11:42;19.50;99.90
15916;DHT22;8057;47.830;-3.870;2023-07-31T14:15:53;19.40;99.90
15916;DHT22;8057;47.830;-3.870;2023-07-31T14:20:03;19.30;99.90
15916;DHT22;8057;47.830;-3.870;2023-07-31T14:24:12;19.30;99.90
15916;DHT22;8057;47.830;-3.870;2023-07-31T14:28:21;19.30;99.90
15916;DHT22;8057;47.830;-3.870;2023-07-31T14:32:32;19.30;99.90
15916;DHT22;8057;47.830;-3.870;2023-07-31T14:36:42;19.40;99.90
15916;DHT22;8057;47.830;-3.870;2023-07-31T14:40:52;19.50;99.90
15916;DHT22;8057;47.830;-3.870;2023-07-31T14:45:01;19.50;99.90
15916;DHT22;8057;47.830;-3.870;2023-07-31T14:49:11;19.40;99.90
15916;DHT22;8057;47.830;-3.870;2023-07-31T14:53:21;19.40;99.90
15916;DHT22;8057;47.830;-3.870;2023-07-31T14:57:30;19.40;99.90
15916;DHT22;8057;47.830;-3.870;2023-07-31T15:01:40;19.40;99.90
15916;DHT22;8057;47.830;-3.870;2023-07-31T15:05:51;19.40;99.90
15916;DHT22;8057;47.830;-3.870;2023-07-31T15:10:01;19.20;99.90
15916;DHT22;8057;47.830;-3.870;2023-07-31T15:14:11;19.20;99.90
15916;DHT22;8057;47.830;-3.870;2023-07-31T15:18:23;19.30;99.90
15916;DHT22;8057;47.830;-3.870;2023-07-31T15:22:34;19.30;99.90
15916;DHT22;8057;47.830;-3.870;2023-07-31T15:26:43;19.40;99.90
15916;DHT22;8057;47.830;-3.870;2023-07-31T15:30:53;19.30;99.90
15916;DHT22;8057;47.830;-3.870;2023-07-31T15:35:04;19.20;99.90
15916;DHT22;8057;47.830;-3.870;2023-07-31T15:39:15;19.30;99.90
15916;DHT22;8057;47.830;-3.870;2023-07-31T15:43:25;19.40;99.90
15916;DHT22;8057;47.830;-3.870;2023-07-31T15:47:35;19.30;99.90
15916;DHT22;8057;47.830;-3.870;2023-07-31T15:51:44;19.40;99.90
15916;DHT22;8057;47.830;-3.870;2023-07-31T15:55:55;19.30;99.90
15916;DHT22;8057;47.830;-3.870;2023-07-31T16:00:05;19.30;99.90
15916;DHT22;8057;47.830;-3.870;2023-07-31T16:04:17;19.20;99.90
15916;DHT22;8057;47.830;-3.870;2023-07-31T16:08:27;19.20;99.90
15916;DHT22;8057;47.830;-3.870;2023-07-31T16:12:37;19.10;99.90
15916;DHT22;8057;47.830;-3.870;2023-07-31T16:16:47;19.10;99.90
15916;DHT22;8057;47.830;-3.870;2023-07-31T16:20:59;19.00;99.90
15916;DHT22;8057;47.830;-3.870;2023-07-31T16:25:10;18.90;99.90
15916;DHT22;8057;47.830;-3.870;2023-07-31T16:29:21;18.90;99.90
15916;DHT22;8057;47.830;-3.870;2023-07-31T16:33:30;18.90;99.90
15916;DHT22;8057;47.830;-3.870;2023-07-31T16:37:40;18.80;99.90
15916;DHT22;8057;47.830;-3.870;2023-07-31T16:41:51;18.80;99.90
15916;DHT22;8057;47.830;-3.870;2023-07-31T16:46:02;18.70;99.90
15916;DHT22;8057;47.830;-3.870;2023-07-31T16:50:11;18.70;99.90
15916;DHT22;8057;47.830;-3.870;2023-07-31T16:54:23;18.70;99.90
15916;DHT22;8057;47.830;-3.870;2023-07-31T16:58:32;18.80;99.90
15916;DHT22;8057;47.830;-3.870;2023-07-31T17:02:42;18.80;99.90
15916;DHT22;8057;47.830;-3.870;2023-07-31T17:06:52;18.70;99.90
15916;DHT22;8057;47.830;-3.870;2023-07-31T17:11:01;18.70;99.90
15916;DHT22;8057;47.830;-3.870;2023-07-31T17:15:10;18.60;99.90
15916;DHT22;8057;47.830;-3.870;2023-07-31T17:19:21;18.70;99.90
15916;DHT22;8057;47.830;-3.870;2023-07-31T17:23:30;18.70;99.90
15916;DHT22;8057;47.830;-3.870;2023-07-31T17:27:39;18.70;99.90
15916;DHT22;8057;47.830;-3.870;2023-07-31T17:31:48;18.60;99.90
15916;DHT22;8057;47.830;-3.870;2023-07-31T17:36:13;18.60;99.90
15916;DHT22;8057;47.830;-3.870;2023-07-31T17:40:23;18.60;99.90
15916;DHT22;8057;47.830;-3.870;2023-07-31T17:44:32;18.60;99.90
15916;DHT22;8057;47.830;-3.870;2023-07-31T17:48:41;18.60;99.90
15916;DHT22;8057;47.830;-3.870;2023-07-31T17:52:52;18.50;99.90
15916;DHT22;8057;47.830;-3.870;2023-07-31T17:57:01;18.50;99.90
15916;DHT22;8057;47.830;-3.870;2023-07-31T18:01:11;18.50;99.90
15916;DHT22;8057;47.830;-3.870;2023-07-31T18:05:20;18.50;99.90
15916;DHT22;8057;47.830;-3.870;2023-07-31T18:09:31;18.40;99.90
15916;DHT22;8057;47.830;-3.870;2023-07-31T18:13:41;18.50;99.90
15916;DHT22;8057;47.830;-3.870;2023-07-31T18:17:51;18.50;99.90
15916;DHT22;8057;47.830;-3.870;2023-07-31T18:22:00;18.50;99.90
15916;DHT22;8057;47.830;-3.870;2023-07-31T18:26:11;18.50;99.90
15916;DHT22;8057;47.830;-3.870;2023-07-31T18:30:21;18.50;99.90
15916;DHT22;8057;47.830;-3.870;2023-07-31T18:34:30;18.60;99.90
15916;DHT22;8057;47.830;-3.870;2023-07-31T18:38:40;18.50;99.90
15916;DHT22;8057;47.830;-3.870;2023-07-31T18:42:50;18.50;99.90
15916;DHT22;8057;47.830;-3.870;2023-07-31T18:47:01;18.40;99.90
15916;DHT22;8057;47.830;-3.870;2023-07-31T18:51:11;18.50;99.90
15916;DHT22;8057;47.830;-3.870;2023-07-31T18:55:20;18.40;99.90
15916;DHT22;8057;47.830;-3.870;2023-07-31T18:59:31;18.40;99.90
15916;DHT22;8057;47.830;-3.870;2023-07-31T19:03:40;18.40;99.90
15916;DHT22;8057;47.830;-3.870;2023-07-31T19:07:51;18.40;99.90
15916;DHT22;8057;47.830;-3.870;2023-07-31T19:12:00;18.30;99.90
15916;DHT22;8057;47.830;-3.870;2023-07-31T19:16:11;18.40;99.90
15916;DHT22;8057;47.830;-3.870;2023-07-31T19:20:25;18.40;99.90
15916;DHT22;8057;47.830;-3.870;2023-07-31T19:24:49;18.40;99.90
15916;DHT22;8057;47.830;-3.870;2023-07-31T19:29:13;18.40;99.90
15916;DHT22;8057;47.830;-3.870;2023-07-31T19:33:31;18.40;99.90
15916;DHT22;8057;47.830;-3.870;2023-07-31T19:38:06;18.40;99.90
15916;DHT22;8057;47.830;-3.870;2023-07-31T19:42:29;18.30;99.90
15916;DHT22;8057;47.830;-3.870;2023-07-31T19:46:39;18.30;99.90
15916;DHT22;8057;47.830;-3.870;2023-07-31T19:50:50;18.30;99.90
15916;DHT22;8057;47.830;-3.870;2023-07-31T19:54:59;18.30;99.90
15916;DHT22;8057;47.830;-3.870;2023-07-31T19:59:08;18.30;99.90
15916;DHT22;8057;47.830;-3.870;2023-07-31T20:03:17;18.30;99.90
15916;DHT22;8057;47.830;-3.870;2023-07-31T20:07:28;18.30;99.90
15916;DHT22;8057;47.830;-3.870;2023-07-31T20:11:37;18.30;99.90
15916;DHT22;8057;47.830;-3.870;2023-07-31T20:15:46;18.20;99.90
15916;DHT22;8057;47.830;-3.870;2023-07-31T20:19:55;18.20;99.90
15916;DHT22;8057;47.830;-3.870;2023-07-31T20:24:06;18.20;99.90
15916;DHT22;8057;47.830;-3.870;2023-07-31T20:28:16;18.20;99.90
15916;DHT22;8057;47.830;-3.870;2023-07-31T20:32:25;18.20;99.90
15916;DHT22;8057;47.830;-3.870;2023-07-31T20:36:34;18.20;99.90
15916;DHT22;8057;47.830;-3.870;2023-07-31T20:40:45;18.10;99.90
15916;DHT22;8057;47.830;-3.870;2023-07-31T20:44:55;18.20;99.90
15916;DHT22;8057;47.830;-3.870;2023-07-31T20:49:04;18.20;99.90
15916;DHT22;8057;47.830;-3.870;2023-07-31T20:53:13;18.10;99.90
15916;DHT22;8057;47.830;-3.870;2023-07-31T20:57:23;18.10;99.90
15916;DHT22;8057;47.830;-3.870;2023-07-31T21:01:33;18.10;99.90
15916;DHT22;8057;47.830;-3.870;2023-07-31T21:05:49;18.10;99.90
15916;DHT22;8057;47.830;-3.870;2023-07-31T21:09:59;18.10;99.90
15916;DHT22;8057;47.830;-3.870;2023-07-31T21:14:09;18.00;99.90
15916;DHT22;8057;47.830;-3.870;2023-07-31T21:18:18;18.10;99.90
15916;DHT22;8057;47.830;-3.870;2023-07-31T21:22:27;18.10;99.90
15916;DHT22;8057;47.830;-3.870;2023-07-31T21:26:36;18.10;99.90
15916;DHT22;8057;47.830;-3.870;2023-07-31T21:30:47;18.00;99.90
15916;DHT22;8057;47.830;-3.870;2023-07-31T21:34:56;18.00;99.90
15916;DHT22;8057;47.830;-3.870;2023-07-31T21:39:05;18.00;99.90
15916;DHT22;8057;47.830;-3.870;2023-07-31T21:43:14;17.90;99.90
15916;DHT22;8057;47.830;-3.870;2023-07-31T21:47:25;17.90;99.90
15916;DHT22;8057;47.830;-3.870;2023-07-31T21:51:34;18.00;99.90
15916;DHT22;8057;47.830;-3.870;2023-07-31T21:55:43;17.90;99.90
15916;DHT22;8057;47.830;-3.870;2023-07-31T21:59:52;18.00;99.90
15916;DHT22;8057;47.830;-3.870;2023-07-31T22:04:03;18.00;99.90
15916;DHT22;8057;47.830;-3.870;2023-07-31T22:08:12;18.00;99.90
15916;DHT22;8057;47.830;-3.870;2023-07-31T22:12:22;18.00;99.90
15916;DHT22;8057;47.830;-3.870;2023-07-31T22:16:31;18.00;99.90
15916;DHT22;8057;47.830;-3.870;2023-07-31T22:20:48;18.00;99.90
15916;DHT22;8057;47.830;-3.870;2023-07-31T22:24:57;18.00;99.90
15916;DHT22;8057;47.830;-3.870;2023-07-31T22:29:06;18.00;99.90
15916;DHT22;8057;47.830;-3.870;2023-07-31T22:33:15;18.00;99.90
15916;DHT22;8057;47.830;-3.870;2023-07-31T22:37:26;18.00;99.90
15916;DHT22;8057;47.830;-3.870;2023-07-31T22:41:36;18.00;99.90
15916;DHT22;8057;47.830;-3.870;2023-07-31T22:45:46;18.10;99.90
15916;DHT22;8057;47.830;-3.870;2023-07-31T22:49:55;18.10;99.90
15916;DHT22;8057;47.830;-3.870;2023-07-31T22:54:06;18.10;99.90
15916;DHT22;8057;47.830;-3.870;2023-07-31T22:58:15;18.00;99.90
15916;DHT22;8057;47.830;-3.870;2023-07-31T23:02:24;18.00;99.90
15916;DHT22;8057;47.830;-3.870;2023-07-31T23:06:34;17.90;99.90
15916;DHT22;8057;47.830;-3.870;2023-07-31T23:10:47;17.80;99.90
15916;DHT22;8057;47.830;-3.870;2023-07-31T23:14:56;17.80;99.90
15916;DHT22;8057;47.830;-3.870;2023-07-31T23:19:06;17.70;99.90
15916;DHT22;8057;47.830;-3.870;2023-07-31T23:23:15;17.70;99.90
15916;DHT22;8057;47.830;-3.870;2023-07-31T23:27:26;17.70;99.90
15916;DHT22;8057;47.830;-3.870;2023-07-31T23:31:35;17.60;99.90
15916;DHT22;8057;47.830;-3.870;2023-07-31T23:35:44;17.60;99.90
15916;DHT22;8057;47.830;-3.870;2023-07-31T23:39:53;17.60;99.90
15916;DHT22;8057;47.830;-3.870;2023-07-31T23:44:04;17.60;99.90
15916;DHT22;8057;47.830;-3.870;2023-07-31T23:48:13;17.50;99.90
15916;DHT22;8057;47.830;-3.870;2023-07-31T23:52:22;17.50;99.90
15916;DHT22;8057;47.830;-3.870;2023-07-31T23:56:31;17.50;99.90
